Time;durP1;ratioP1;P1;durP2;ratioP2;P2;SDS_P1;SDS_P2;PMS_P1;PMS_P2;Temp;Humidity;BMP_temperature;BMP_pressure;BME280_temperature;BME280_humidity;BME280_pressure;Samples;Min_cycle;Max_cycle;Signal;HPM_P1;HPM_P2
2023/07/29 00:00:12;;;;;;;8.35;5.45;;;;;;;25.15;73.30;100537.13;4916790;29;20500;-77
2023/07/29 00:02:44;;;;;;;6.97;5.55;;;;;;;25.28;73.70;100531.28;4917350;29;20056;-77
2023/07/29 00:05:12;;;;;;;11.02;7.68;;;;;;;25.13;73.96;100533.91;4910834;29;20068;-77
2023/07/29 00:07:40;;;;;;;4.20;3.67;;;;;;;25.17;74.08;100531.16;4916733;29;20047;-77
2023/07/29 00:10:08;;;;;;;4.40;3.92;;;;;;;25.03;74.09;100529.00;4916257;29;20060;-77
2023/07/29 00:12:36;;;;;;;7.30;3.75;;;;;;;25.02;74.84;100538.59;4917421;29;20392;-77
2023/07/29 00:15:04;;;;;;;5.35;3.60;;;;;;;24.99;73.80;100528.94;4918523;29;20718;-77
2023/07/29 00:17:32;;;;;;;3.38;3.08;;;;;;;25.05;73.51;100527.44;4916797;29;20581;-77
2023/07/29 00:20:03;;;;;;;3.70;3.15;;;;;;;25.11;74.30;100524.28;4916544;29;20064;-77
2023/07/29 00:22:34;;;;;;;;;;;;;;;25.08;74.37;100511.84;4917718;29;20111;-77
2023/07/29 00:25:02;;;;;;;9.80;4.03;;;;;;;25.01;73.07;100506.97;4917032;29;19923;-77
2023/07/29 00:27:30;;;;;;;5.90;3.95;;;;;;;25.06;73.96;100511.41;4917225;29;20051;-77
2023/07/29 00:29:58;;;;;;;5.15;3.30;;;;;;;24.92;73.18;100512.88;4916495;29;20063;-77
2023/07/29 00:32:29;;;;;;;4.80;4.18;;;;;;;24.80;71.95;100511.09;4899414;29;20500;-77
2023/07/29 00:34:57;;;;;;;4.95;3.83;;;;;;;24.75;73.91;100511.44;4916918;29;20048;-77
2023/07/29 00:37:25;;;;;;;5.38;3.47;;;;;;;24.97;72.51;100508.91;4900125;29;20048;-77
2023/07/29 00:39:53;;;;;;;4.63;3.45;;;;;;;25.02;71.79;100507.78;4917011;29;20043;-77
2023/07/29 00:42:21;;;;;;;4.00;3.53;;;;;;;25.12;70.14;100514.69;4899948;29;20044;-77
2023/07/29 00:44:49;;;;;;;3.78;3.42;;;;;;;25.20;70.71;100507.97;4916618;29;20051;-77
2023/07/29 00:47:18;;;;;;;5.47;3.40;;;;;;;24.95;70.02;100509.31;4899939;29;20048;-77
2023/07/29 00:49:49;;;;;;;5.15;3.67;;;;;;;24.63;71.63;100506.84;4898999;29;20059;-77
2023/07/29 00:52:17;;;;;;;7.97;3.72;;;;;;;24.43;72.01;100504.19;4916690;29;20055;-77
2023/07/29 00:54:46;;;;;;;5.85;3.88;;;;;;;24.69;72.98;100510.16;4898961;29;20048;-78
2023/07/29 00:57:16;;;;;;;5.10;3.38;;;;;;;24.75;70.49;100505.84;4916053;29;20056;-77
2023/07/29 00:59:44;;;;;;;5.78;3.58;;;;;;;24.86;70.78;100514.38;4899150;29;20507;-77
2023/07/29 01:02:12;;;;;;;6.47;3.50;;;;;;;24.70;68.88;100515.34;4899304;29;20052;-77
2023/07/29 01:04:40;;;;;;;5.88;3.33;;;;;;;24.75;70.57;100508.63;4893998;29;20053;-77
2023/07/29 01:07:27;;;;;;;7.28;3.60;;;;;;;24.64;69.27;100516.06;4896992;29;20528;-77
2023/07/29 01:10:03;;;;;;;4.10;3.13;;;;;;;24.76;69.79;100515.00;4880556;29;20044;-77
2023/07/29 01:12:35;;;;;;;4.72;2.95;;;;;;;24.62;70.19;100522.03;4895667;29;20060;-77
2023/07/29 01:15:23;;;;;;;8.23;3.47;;;;;;;24.50;72.53;100519.47;4898185;29;20052;-77
2023/07/29 01:18:26;;;;;;;8.20;3.60;;;;;;;24.44;74.54;100521.78;4916327;29;20051;-77
2023/07/29 01:20:57;;;;;;;6.40;4.38;;;;;;;24.46;75.54;100521.41;4889975;29;20056;-77
2023/07/29 01:23:30;;;;;;;5.35;3.58;;;;;;;24.43;76.97;100526.56;4916457;29;20048;-77
2023/07/29 01:25:59;;;;;;;6.30;3.40;;;;;;;24.40;77.62;100532.91;4916217;29;20055;-77
2023/07/29 01:28:27;;;;;;;6.47;4.18;;;;;;;24.41;77.75;100522.53;4915856;29;20056;-77
2023/07/29 01:31:07;;;;;;;5.32;4.03;;;;;;;24.14;78.29;100534.50;4915409;29;20055;-77
2023/07/29 01:33:42;;;;;;;5.63;3.80;;;;;;;23.95;79.58;100534.56;4915534;29;20067;-77
2023/07/29 01:36:22;;;;;;;5.40;4.10;;;;;;;23.81;80.54;100543.50;4894968;29;20064;-77
2023/07/29 01:38:53;;;;;;;6.72;3.60;;;;;;;23.85;80.14;100547.97;4896409;29;20063;-77
2023/07/29 01:41:22;;;;;;;3.90;3.40;;;;;;;23.97;78.95;100538.59;4897049;29;20057;-77
2023/07/29 01:43:52;;;;;;;5.05;3.75;;;;;;;23.87;78.07;100551.22;4880475;29;20055;-77
2023/07/29 01:46:20;;;;;;;6.45;3.95;;;;;;;23.68;79.00;100540.91;4880464;29;20424;-77
2023/07/29 01:48:48;;;;;;;4.85;3.90;;;;;;;23.80;78.74;100534.31;4864997;29;20056;-77
2023/07/29 01:51:16;;;;;;;4.80;3.25;;;;;;;23.87;78.65;100528.88;4880000;29;20500;-77
2023/07/29 01:53:44;;;;;;;6.03;4.13;;;;;;;23.85;78.55;100530.41;4880474;29;20055;-77
2023/07/29 01:56:12;;;;;;;4.07;3.40;;;;;;;23.91;78.14;100536.50;4911914;29;20059;-77
2023/07/29 01:58:49;;;;;;;5.18;3.97;;;;;;;23.85;78.84;100528.41;4898321;29;20056;-77
2023/07/29 02:01:17;;;;;;;3.70;3.30;;;;;;;23.77;78.63;100529.47;4898908;29;20084;-77
2023/07/29 02:03:46;;;;;;;5.72;4.05;;;;;;;23.83;79.28;100529.97;4915242;29;20044;-77
2023/07/29 02:06:14;;;;;;;7.72;3.67;;;;;;;23.70;79.48;100534.94;4896133;29;20055;-77
2023/07/29 02:08:42;;;;;;;6.75;4.00;;;;;;;23.51;79.57;100530.19;4915087;29;20052;-78
2023/07/29 02:11:20;;;;;;;4.35;3.60;;;;;;;23.71;79.62;100531.75;4915827;29;20063;-77
2023/07/29 02:13:49;;;;;;;6.88;4.05;;;;;;;23.46;80.29;100529.31;4914938;29;20071;-77
2023/07/29 02:16:16;;;;;;;8.23;4.20;;;;;;;23.47;80.67;100525.34;4894750;29;20052;-77
2023/07/29 02:18:44;;;;;;;6.13;3.55;;;;;;;23.21;81.51;100526.00;4896480;29;20049;-77
2023/07/29 02:21:12;;;;;;;5.90;3.58;;;;;;;23.40;81.35;100522.44;4879736;29;20060;-77
2023/07/29 02:23:40;;;;;;;5.97;3.58;;;;;;;23.35;81.37;100525.50;4905957;29;20063;-77
2023/07/29 02:26:08;;;;;;;4.93;3.70;;;;;;;23.29;82.06;100524.16;4914178;29;20052;-77
2023/07/29 02:28:36;;;;;;;4.80;4.00;;;;;;;23.43;81.77;100532.06;4898340;29;20048;-77
2023/07/29 02:31:23;;;;;;;5.07;3.97;;;;;;;23.43;80.88;100520.88;4901512;29;20048;-77
2023/07/29 02:33:52;;;;;;;4.05;3.50;;;;;;;23.46;81.00;100520.16;4918912;29;20411;-77
2023/07/29 02:36:20;;;;;;;4.25;3.85;;;;;;;23.34;80.85;100530.31;4898235;29;20515;-77
2023/07/29 02:38:48;;;;;;;6.72;4.03;;;;;;;23.28;81.57;100531.75;4883144;29;20052;-77
2023/07/29 02:41:16;;;;;;;4.38;3.42;;;;;;;23.25;82.17;100526.91;4883205;29;20378;-77
2023/07/29 02:43:49;;;;;;;5.85;3.78;;;;;;;23.16;82.11;100524.34;4883625;29;20044;-78
2023/07/29 02:46:17;;;;;;;4.40;3.70;;;;;;;23.26;81.66;100528.50;4912498;29;20040;-76
2023/07/29 02:48:46;;;;;;;6.47;4.03;;;;;;;23.06;81.65;100528.53;4900084;29;20059;-76
2023/07/29 02:51:13;;;;;;;6.13;4.15;;;;;;;22.99;82.48;100539.53;4909226;29;20409;-76
2023/07/29 02:53:42;;;;;;;7.18;3.95;;;;;;;22.92;83.45;100531.81;4899473;29;20048;-76
2023/07/29 02:56:11;;;;;;;7.03;4.57;;;;;;;22.99;82.98;100530.34;4908783;29;20055;-76
2023/07/29 02:58:39;;;;;;;7.22;4.40;;;;;;;22.90;83.72;100538.94;4899264;29;20048;-77
2023/07/29 03:01:08;;;;;;;5.93;4.28;;;;;;;23.16;82.94;100540.28;4882462;29;20052;-77
2023/07/29 03:03:36;;;;;;;4.30;3.90;;;;;;;23.33;82.39;100539.03;4898220;29;20063;-77
2023/07/29 03:06:07;;;;;;;5.05;4.25;;;;;;;23.45;81.67;100538.88;4908721;29;20506;-77
2023/07/29 03:08:36;;;;;;;6.82;4.28;;;;;;;23.28;81.96;100530.94;4918314;29;20432;-77
2023/07/29 03:11:09;;;;;;;4.43;3.92;;;;;;;23.37;81.47;100525.16;4918118;29;20130;-77
2023/07/29 03:13:37;;;;;;;7.23;4.73;;;;;;;23.29;81.60;100536.16;4917849;29;20056;-77
2023/07/29 03:16:13;;;;;;;7.22;4.13;;;;;;;23.02;82.60;100540.78;4917497;29;20063;-77
2023/07/29 03:18:48;;;;;;;10.57;4.60;;;;;;;22.95;83.74;100539.47;4901362;29;20052;-77
2023/07/29 03:21:16;;;;;;;4.57;3.67;;;;;;;22.94;84.21;100551.00;4917692;29;20052;-77
2023/07/29 03:23:44;;;;;;;6.00;4.00;;;;;;;22.94;84.63;100540.63;4900733;29;20060;-77
2023/07/29 03:26:12;;;;;;;5.88;3.88;;;;;;;22.81;85.17;100539.97;4900961;29;20055;-77
2023/07/29 03:28:42;;;;;;;8.60;3.72;;;;;;;23.00;84.87;100543.13;4918433;29;20063;-77
2023/07/29 03:31:10;;;;;;;5.68;4.35;;;;;;;23.08;84.42;100553.28;4900847;29;20060;-77
2023/07/29 03:33:39;;;;;;;4.57;3.80;;;;;;;23.08;84.36;100551.28;4918240;29;20060;-77
2023/07/29 03:36:07;;;;;;;4.13;3.47;;;;;;;23.25;82.68;100560.38;4918007;29;20476;-76
2023/07/29 03:38:39;;;;;;;6.53;4.20;;;;;;;23.03;83.56;100548.78;4917832;29;20055;-77
2023/07/29 03:41:08;;;;;;;5.68;3.90;;;;;;;23.00;83.81;100548.69;4899354;29;20058;-77
2023/07/29 03:43:36;;;;;;;4.85;3.60;;;;;;;23.11;83.36;100548.94;4918203;29;20044;-77
2023/07/29 03:46:05;;;;;;;6.35;3.55;;;;;;;23.11;83.01;100544.16;4917273;29;20052;-77
2023/07/29 03:48:36;;;;;;;5.25;3.72;;;;;;;22.99;84.10;100539.53;4900796;29;20048;-77
2023/07/29 03:51:05;;;;;;;8.57;4.40;;;;;;;22.81;83.53;100545.53;4900507;29;20048;-78
2023/07/29 03:53:33;;;;;;;5.20;4.00;;;;;;;22.87;82.98;100548.06;4900837;29;20067;-77
2023/07/29 03:56:01;;;;;;;6.53;4.13;;;;;;;23.07;82.45;100549.66;4881638;29;20059;-77
2023/07/29 03:58:28;;;;;;;4.70;3.58;;;;;;;23.22;81.45;100553.56;4882037;29;20382;-77
2023/07/29 04:00:56;;;;;;;4.28;3.85;;;;;;;23.14;81.36;100562.16;4882313;29;20492;-77
2023/07/29 04:03:24;;;;;;;6.45;3.85;;;;;;;23.09;82.33;100558.50;4881752;29;20049;-77
2023/07/29 04:05:53;;;;;;;5.82;4.50;;;;;;;23.12;81.90;100561.72;4910658;29;20064;-77
2023/07/29 04:08:22;;;;;;;5.55;3.72;;;;;;;22.80;82.81;100557.88;4900938;29;20044;-77
2023/07/29 04:10:50;;;;;;;8.18;4.20;;;;;;;22.95;82.66;100560.97;4900521;29;20044;-77
2023/07/29 04:13:18;;;;;;;6.10;3.50;;;;;;;22.94;83.50;100578.91;4900199;29;20408;-79
2023/07/29 04:15:46;;;;;;;5.80;3.85;;;;;;;22.85;83.38;100578.28;4896570;29;20051;-77
2023/07/29 04:18:14;;;;;;;7.70;4.57;;;;;;;22.88;83.33;100589.50;4898457;29;20072;-79
2023/07/29 04:20:43;;;;;;;5.68;3.25;;;;;;;22.87;84.10;100578.75;4890025;29;20056;-79
2023/07/29 04:23:11;;;;;;;5.18;3.90;;;;;;;22.92;84.12;100586.84;4900271;29;20048;-79
2023/07/29 04:25:40;;;;;;;8.00;3.63;;;;;;;23.00;84.07;100576.59;4896361;29;20060;-79
2023/07/29 04:28:08;;;;;;;4.65;4.07;;;;;;;23.21;83.85;100581.84;4916414;29;20048;-78
2023/07/29 04:30:36;;;;;;;7.60;3.35;;;;;;;23.15;82.78;100581.34;4933300;29;20044;-76
2023/07/29 04:33:04;;;;;;;5.40;3.65;;;;;;;23.19;82.55;100584.19;4898574;29;20496;-76
2023/07/29 04:35:32;;;;;;;9.55;3.78;;;;;;;23.22;82.68;100589.84;4914071;29;20507;-79
2023/07/29 04:38:00;;;;;;;4.72;3.70;;;;;;;22.96;83.15;100587.69;4915738;29;20060;-79
2023/07/29 04:40:28;;;;;;;5.30;3.88;;;;;;;23.08;83.03;100598.72;4916734;29;20063;-79
2023/07/29 04:42:56;;;;;;;6.05;4.07;;;;;;;23.17;83.15;100592.94;4916025;29;20067;-78
2023/07/29 04:45:29;;;;;;;4.93;4.18;;;;;;;23.29;83.42;100583.63;4915628;29;20515;-78
2023/07/29 04:47:58;;;;;;;5.10;3.75;;;;;;;23.22;83.24;100589.06;4899618;29;20055;-79
2023/07/29 04:50:26;;;;;;;7.78;4.18;;;;;;;23.22;83.08;100583.47;4916759;29;20048;-78
2023/07/29 04:52:54;;;;;;;5.57;4.25;;;;;;;23.12;83.40;100573.69;4899596;29;20149;-78
2023/07/29 04:55:22;;;;;;;8.85;4.00;;;;;;;23.20;83.62;100574.63;4897202;29;20412;-79
2023/07/29 04:57:50;;;;;;;6.82;4.05;;;;;;;23.40;82.71;100583.84;4903431;29;20040;-79
2023/07/29 05:00:18;;;;;;;6.05;4.10;;;;;;;23.41;82.65;100584.69;4899056;29;20048;-79
2023/07/29 05:02:46;;;;;;;4.30;3.78;;;;;;;23.43;82.58;100594.31;4899899;29;20048;-79
2023/07/29 05:05:14;;;;;;;7.18;3.88;;;;;;;23.35;83.36;100598.94;4897784;29;20535;-79
2023/07/29 05:07:42;;;;;;;6.15;4.18;;;;;;;23.40;82.96;100591.44;4916559;29;20052;-79
2023/07/29 05:10:09;;;;;;;5.70;4.05;;;;;;;23.41;82.35;100590.25;4899664;29;20051;-79
2023/07/29 05:12:37;;;;;;;4.22;3.55;;;;;;;23.34;83.16;100596.50;4898635;29;20056;-79
2023/07/29 05:15:06;;;;;;;6.13;3.83;;;;;;;23.31;83.87;100598.03;4915866;29;20067;-79
2023/07/29 05:17:34;;;;;;;5.97;4.03;;;;;;;23.44;83.48;100606.25;4916451;29;20044;-79
2023/07/29 05:20:02;;;;;;;9.40;4.18;;;;;;;23.61;83.21;100605.00;4915378;29;20055;-79
2023/07/29 05:22:30;;;;;;;4.22;3.83;;;;;;;23.48;82.96;100612.72;4916126;29;20388;-79
2023/07/29 05:24:58;;;;;;;5.25;4.05;;;;;;;23.41;83.06;100609.81;4914145;29;20059;-79
2023/07/29 05:27:26;;;;;;;5.97;4.10;;;;;;;23.58;82.42;100608.53;4915876;29;20052;-78
2023/07/29 05:29:54;;;;;;;6.55;3.83;;;;;;;23.74;82.10;100614.03;4916290;29;20047;-78
2023/07/29 05:32:22;;;;;;;4.65;4.18;;;;;;;23.82;82.63;100613.00;4898341;29;20067;-79
2023/07/29 05:34:50;;;;;;;4.93;4.38;;;;;;;23.87;81.56;100621.06;4898478;29;20075;-78
2023/07/29 05:37:18;;;;;;;6.93;3.60;;;;;;;23.85;81.85;100617.03;4896621;29;20052;-77
2023/07/29 05:39:47;;;;;;;5.22;4.03;;;;;;;23.85;82.09;100623.41;4896035;29;20060;-77
2023/07/29 05:42:15;;;;;;;4.40;3.80;;;;;;;23.93;81.48;100620.75;4894053;29;20045;-77
2023/07/29 05:44:44;;;;;;;10.40;4.18;;;;;;;24.01;81.93;100612.13;4884118;29;20052;-77
2023/07/29 05:47:12;;;;;;;5.70;4.15;;;;;;;24.21;81.17;100616.88;4886453;29;20068;-78
2023/07/29 05:49:40;;;;;;;5.55;4.43;;;;;;;24.25;81.15;100620.56;4889767;29;20056;-78
2023/07/29 05:52:11;;;;;;;9.80;4.40;;;;;;;24.32;81.75;100619.84;4896536;29;20052;-77
2023/07/29 05:54:39;;;;;;;6.30;4.32;;;;;;;24.35;82.74;100619.94;4903898;29;20075;-77
2023/07/29 05:57:07;;;;;;;5.95;4.47;;;;;;;24.47;81.87;100604.94;4900141;29;20052;-77
2023/07/29 05:59:35;;;;;;;7.18;4.65;;;;;;;24.60;81.21;100608.34;4915671;29;20048;-78
2023/07/29 06:02:03;;;;;;;7.53;4.60;;;;;;;24.64;82.17;100598.00;4906677;29;20515;-76
2023/07/29 06:04:35;;;;;;;7.90;4.22;;;;;;;24.73;80.70;100608.91;4909908;29;20056;-78
2023/07/29 06:07:03;;;;;;;5.85;4.30;;;;;;;24.86;79.83;100597.53;4912680;29;20049;-78
2023/07/29 06:09:32;;;;;;;6.15;4.18;;;;;;;24.93;79.28;100594.84;4900390;29;20053;-78
2023/07/29 06:12:01;;;;;;;9.32;4.68;;;;;;;25.06;77.95;100595.41;4905016;29;20044;-78
2023/07/29 06:14:30;;;;;;;7.30;4.95;;;;;;;25.14;76.77;100602.72;4918375;29;20060;-78
2023/07/29 06:16:58;;;;;;;7.93;6.47;;;;;;;25.14;77.21;100616.72;4919106;29;20052;-78
2023/07/29 06:19:26;;;;;;;8.15;5.82;;;;;;;25.22;76.84;100621.22;4917753;29;20052;-79
2023/07/29 06:21:55;;;;;;;9.10;7.50;;;;;;;25.23;77.44;100622.03;4914830;29;20044;-78
2023/07/29 06:24:25;;;;;;;9.32;6.95;;;;;;;25.22;77.68;100632.41;4911666;29;20397;-77
2023/07/29 06:26:54;;;;;;;7.25;6.20;;;;;;;25.28;76.50;100632.09;4910774;29;20055;-79
2023/07/29 06:29:22;;;;;;;8.45;6.60;;;;;;;25.43;75.67;100636.69;4919267;29;20056;-77
2023/07/29 06:31:51;;;;;;;7.90;5.93;;;;;;;25.48;76.00;100638.34;4913642;29;20052;-77
2023/07/29 06:34:19;;;;;;;13.23;6.65;;;;;;;25.59;74.84;100635.69;4918172;29;20082;-78
2023/07/29 06:36:48;;;;;;;7.72;5.80;;;;;;;25.72;74.86;100637.03;4905497;29;20048;-78
2023/07/29 06:39:17;;;;;;;12.07;6.65;;;;;;;25.75;75.12;100647.50;4901388;29;20063;-77
2023/07/29 06:41:46;;;;;;;11.50;5.75;;;;;;;25.84;74.54;100638.78;4912375;29;20047;-81
2023/07/29 06:44:15;;;;;;;13.57;6.63;;;;;;;26.02;73.46;100638.97;4917519;29;20154;-78
2023/07/29 06:46:43;;;;;;;9.68;5.43;;;;;;;26.13;71.82;100643.84;4918442;29;20048;-80
2023/07/29 06:49:12;;;;;;;7.75;5.82;;;;;;;26.21;71.69;100645.56;4912637;29;20051;-80
2023/07/29 06:51:41;;;;;;;11.02;5.95;;;;;;;26.30;71.04;100648.06;4911037;29;20040;-79
2023/07/29 06:54:11;;;;;;;11.43;6.68;;;;;;;26.33;70.34;100649.28;4913071;29;20052;-80
2023/07/29 06:56:40;;;;;;;11.13;5.43;;;;;;;26.30;70.71;100648.84;4906806;29;20075;-75
2023/07/29 06:59:08;;;;;;;9.38;6.07;;;;;;;26.43;70.19;100646.56;4886353;29;20130;-75
2023/07/29 07:01:37;;;;;;;7.85;5.55;;;;;;;26.54;70.22;100643.84;4883261;29;20053;-74
2023/07/29 07:04:06;;;;;;;8.43;5.95;;;;;;;26.49;72.15;100649.81;4900701;29;20044;-74
2023/07/29 07:06:34;;;;;;;10.88;6.88;;;;;;;26.49;71.78;100655.41;4917325;29;20060;-75
2023/07/29 07:09:03;;;;;;;8.50;6.63;;;;;;;26.55;70.38;100653.06;4916391;29;20056;-74
2023/07/29 07:11:31;;;;;;;9.77;6.78;;;;;;;26.60;69.67;100654.69;4918387;29;20056;-75
2023/07/29 07:14:00;;;;;;;11.82;6.03;;;;;;;26.59;69.41;100648.31;4901094;29;20056;-74
2023/07/29 07:16:30;;;;;;;8.90;5.97;;;;;;;26.56;68.88;100649.88;4916548;29;20052;-72
2023/07/29 07:19:06;;;;;;;10.15;5.90;;;;;;;26.49;69.28;100649.81;4909015;29;20396;-74
2023/07/29 07:21:34;;;;;;;7.97;6.03;;;;;;;26.44;69.42;100636.13;4917577;29;20055;-74
2023/07/29 07:24:03;;;;;;;11.55;6.70;;;;;;;26.52;70.20;100631.38;4916958;29;20384;-73
2023/07/29 07:26:31;;;;;;;10.57;6.15;;;;;;;26.50;69.42;100637.41;4917393;29;20040;-74
2023/07/29 07:29:00;;;;;;;7.55;6.13;;;;;;;26.71;68.92;100621.91;4912892;29;20055;-74
2023/07/29 07:31:33;;;;;;;8.30;5.60;;;;;;;26.89;68.22;100626.84;4911717;29;20045;-73
2023/07/29 07:34:04;;;;;;;7.32;5.63;;;;;;;27.03;68.26;100632.53;4907765;29;20404;-73
2023/07/29 07:36:37;;;;;;;7.13;5.80;;;;;;;27.16;69.09;100635.84;4896529;29;20060;-73
2023/07/29 07:39:07;;;;;;;7.10;5.20;;;;;;;27.31;70.34;100627.47;4915862;29;20044;-74
2023/07/29 07:41:36;;;;;;;10.20;6.43;;;;;;;27.34;68.70;100626.69;4911546;29;20044;-74
2023/07/29 07:44:04;;;;;;;10.68;6.63;;;;;;;27.35;68.17;100631.09;4910207;29;20044;-68
2023/07/29 07:46:33;;;;;;;10.90;7.15;;;;;;;27.23;67.63;100630.25;4910085;29;20067;-79
2023/07/29 07:49:01;;;;;;;8.80;5.90;;;;;;;27.21;63.57;100626.22;4909920;29;20059;-78
2023/07/29 07:51:30;;;;;;;10.20;5.55;;;;;;;27.35;64.77;100626.28;4911029;29;20070;-78
2023/07/29 07:53:58;;;;;;;6.93;5.10;;;;;;;27.40;63.04;100627.91;4912282;29;20712;-77
2023/07/29 07:56:27;;;;;;;8.90;5.75;;;;;;;27.46;64.66;100626.31;4916405;29;20052;-78
2023/07/29 07:58:55;;;;;;;7.10;5.18;;;;;;;27.58;63.74;100633.63;4917005;29;20063;-79
2023/07/29 08:01:24;;;;;;;8.07;6.10;;;;;;;27.66;63.99;100628.81;4917262;29;20048;-79
2023/07/29 08:03:52;;;;;;;8.60;5.22;;;;;;;27.77;63.54;100628.88;4916249;29;20063;-79
2023/07/29 08:06:21;;;;;;;10.27;6.55;;;;;;;27.74;66.12;100626.84;4914845;29;20064;-78
2023/07/29 08:08:49;;;;;;;6.50;4.97;;;;;;;27.80;64.72;100633.69;4915880;29;20052;-79
2023/07/29 08:11:18;;;;;;;8.77;5.70;;;;;;;27.86;64.50;100632.09;4916465;29;20075;-80
2023/07/29 08:13:46;;;;;;;11.02;7.15;;;;;;;27.83;66.08;100632.06;4917030;29;20076;-78
2023/07/29 08:16:14;;;;;;;7.53;6.25;;;;;;;27.70;64.96;100634.47;4917098;29;20500;-79
2023/07/29 08:18:43;;;;;;;10.10;6.65;;;;;;;27.81;65.52;100634.50;4916575;29;20056;-78
2023/07/29 08:21:11;;;;;;;8.52;5.50;;;;;;;27.88;64.69;100629.69;4916857;29;20049;-78
2023/07/29 08:23:40;;;;;;;10.05;6.18;;;;;;;27.93;64.44;100636.94;4916156;29;20052;-78
2023/07/29 08:26:08;;;;;;;10.98;6.78;;;;;;;27.89;64.27;100630.47;4916974;29;20424;-78
2023/07/29 08:28:39;;;;;;;6.07;5.25;;;;;;;28.00;63.85;100627.72;4916020;29;20134;-78
2023/07/29 08:31:07;;;;;;;6.25;5.57;;;;;;;28.06;63.98;100619.66;4916496;29;20055;-79
2023/07/29 08:33:36;;;;;;;5.93;4.88;;;;;;;28.21;63.10;100617.66;4920535;29;20407;-79
2023/07/29 08:36:05;;;;;;;8.63;5.63;;;;;;;28.25;62.42;100618.50;4932333;29;20051;-78
2023/07/29 08:38:33;;;;;;;11.00;5.72;;;;;;;28.32;61.99;100624.13;4904350;29;20063;-79
2023/07/29 08:41:33;;;;;;;9.93;4.88;;;;;;;28.42;62.21;100625.31;4917426;29;20051;-78
2023/07/29 08:44:16;;;;;;;5.75;4.43;;;;;;;28.49;61.05;100621.72;4916624;29;20071;-80
2023/07/29 08:46:45;;;;;;;;;;;;;;;28.52;61.58;100618.91;4917979;29;20082;-79
2023/07/29 08:49:14;;;;;;;7.85;5.47;;;;;;;28.55;59.95;100620.09;4917667;29;19934;-79
2023/07/29 08:51:44;;;;;;;6.50;4.22;;;;;;;28.52;59.77;100615.25;4916060;29;20055;-79
2023/07/29 08:54:13;;;;;;;7.50;4.38;;;;;;;28.54;60.49;100616.47;4915915;29;20079;-79
2023/07/29 08:56:42;;;;;;;6.80;4.38;;;;;;;28.56;59.44;100616.06;4916030;29;20055;-80
2023/07/29 08:59:12;;;;;;;8.70;4.57;;;;;;;28.54;58.36;100612.88;4916030;29;20048;-78
2023/07/29 09:01:41;;;;;;;8.80;5.30;;;;;;;28.64;57.84;100614.84;4915878;29;20056;-79
2023/07/29 09:04:10;;;;;;;7.03;3.90;;;;;;;28.77;58.11;100620.03;4915624;29;20040;-79
2023/07/29 09:06:39;;;;;;;7.70;4.40;;;;;;;28.93;57.79;100628.09;4916153;29;20076;-80
2023/07/29 09:09:08;;;;;;;6.05;4.50;;;;;;;28.93;57.27;100626.06;4916654;29;20044;-80
2023/07/29 09:11:37;;;;;;;4.88;3.58;;;;;;;28.94;57.84;100629.72;4916085;29;20063;-79
2023/07/29 09:14:05;;;;;;;6.50;5.15;;;;;;;28.86;57.07;100620.47;4916232;29;20052;-79
2023/07/29 09:16:34;;;;;;;8.38;5.22;;;;;;;28.81;57.26;100621.66;4880467;29;20496;-82
2023/07/29 09:19:03;;;;;;;6.13;4.07;;;;;;;28.88;57.63;100623.66;4870241;29;20052;-78
2023/07/29 09:21:32;;;;;;;7.53;4.35;;;;;;;28.94;57.88;100618.44;4916137;29;20063;-79
2023/07/29 09:24:05;;;;;;;11.65;5.20;;;;;;;28.99;57.64;100612.41;4916580;29;20055;-79
2023/07/29 09:26:33;;;;;;;7.78;4.32;;;;;;;29.09;57.97;100617.16;4916317;29;20056;-78
2023/07/29 09:29:03;;;;;;;5.57;3.40;;;;;;;29.13;57.79;100620.00;4914874;29;20057;-79
2023/07/29 09:31:31;;;;;;;13.25;6.03;;;;;;;29.18;57.82;100615.94;4915437;29;20048;-78
2023/07/29 09:34:02;;;;;;;8.77;5.00;;;;;;;29.29;59.62;100621.53;4915593;29;20408;-79
2023/07/29 09:36:33;;;;;;;6.80;5.20;;;;;;;29.26;58.04;100619.53;4905545;29;20240;-77
2023/07/29 09:39:03;;;;;;;6.47;4.75;;;;;;;29.37;57.28;100611.81;4911899;29;20052;-79
2023/07/29 09:41:31;;;;;;;8.00;4.63;;;;;;;29.50;60.45;100604.56;4911210;29;20048;-79
2023/07/29 09:44:02;;;;;;;5.47;4.72;;;;;;;29.59;57.77;100612.56;4895916;29;20396;-79
2023/07/29 09:46:35;;;;;;;7.75;4.57;;;;;;;29.71;58.35;100616.13;4913876;29;20044;-78
2023/07/29 09:49:07;;;;;;;5.07;3.80;;;;;;;29.65;57.02;100612.91;4911068;29;20412;-79
2023/07/29 09:51:40;;;;;;;4.78;4.18;;;;;;;29.70;56.58;100609.66;4916055;29;20040;-79
2023/07/29 09:54:09;;;;;;;5.97;4.38;;;;;;;29.83;55.61;100603.53;4913277;29;20051;-79
2023/07/29 09:56:44;;;;;;;6.38;4.45;;;;;;;29.76;56.31;100602.38;4915744;29;20079;-78
2023/07/29 09:59:28;;;;;;;5.07;3.45;;;;;;;29.84;55.41;100593.88;4913065;29;20056;-77
2023/07/29 10:01:57;;;;;;;6.10;4.28;;;;;;;29.93;55.70;100597.03;4912393;29;20056;-79
2023/07/29 10:04:27;;;;;;;8.55;4.40;;;;;;;29.79;55.46;100595.13;4912147;29;20056;-76
2023/07/29 10:06:56;;;;;;;5.97;4.10;;;;;;;29.81;56.09;100595.50;4911131;29;20131;-78
2023/07/29 10:09:25;;;;;;;10.43;5.53;;;;;;;29.85;55.73;100587.00;4910841;29;20079;-78
2023/07/29 10:11:54;;;;;;;7.95;4.47;;;;;;;29.91;55.50;100588.19;4911466;29;20051;-78
2023/07/29 10:14:25;;;;;;;4.95;3.60;;;;;;;29.90;55.42;100586.56;4905742;29;20052;-79
2023/07/29 10:16:55;;;;;;;4.60;3.90;;;;;;;29.86;55.75;100586.59;4896861;29;20079;-78
2023/07/29 10:19:28;;;;;;;6.28;4.00;;;;;;;29.97;55.27;100580.88;4911945;29;20341;-78
2023/07/29 10:22:00;;;;;;;4.85;4.00;;;;;;;30.03;56.38;100584.88;4913999;29;20074;-78
2023/07/29 10:24:33;;;;;;;8.00;4.85;;;;;;;30.19;54.95;100575.06;4912818;29;20078;-78
2023/07/29 10:27:03;;;;;;;4.53;4.10;;;;;;;30.30;54.71;100581.44;4914378;29;20056;-78
2023/07/29 10:29:34;;;;;;;6.20;4.25;;;;;;;30.43;54.80;100580.91;4914225;29;20365;-77
2023/07/29 10:32:04;;;;;;;6.20;4.90;;;;;;;30.58;54.74;100578.75;4911474;29;20075;-78
2023/07/29 10:34:35;;;;;;;5.30;3.75;;;;;;;30.60;54.72;100581.97;4914417;29;20063;-78
2023/07/29 10:37:04;;;;;;;8.43;4.60;;;;;;;30.55;55.23;100577.56;4911064;29;20625;-78
2023/07/29 10:39:53;;;;;;;5.57;4.90;;;;;;;30.51;55.41;100587.28;4911386;29;20067;-79
2023/07/29 10:42:22;;;;;;;7.97;5.47;;;;;;;30.56;54.36;100575.53;4914565;29;20052;-78
2023/07/29 10:44:54;;;;;;;6.35;3.80;;;;;;;30.56;52.61;100567.06;4914289;29;20064;-79
2023/07/29 10:47:29;;;;;;;3.70;3.10;;;;;;;30.54;52.78;100570.31;4914375;29;20060;-78
2023/07/29 10:49:59;;;;;;;4.57;3.33;;;;;;;30.44;52.65;100568.38;4914120;29;20428;-78
2023/07/29 10:52:37;;;;;;;4.38;3.20;;;;;;;30.67;53.71;100567.75;4917592;29;20048;-80
2023/07/29 10:55:26;;;;;;;4.00;3.47;;;;;;;30.73;53.30;100570.94;4899588;29;20056;-79
2023/07/29 10:58:07;;;;;;;4.85;3.72;;;;;;;30.77;53.26;100573.72;4897760;29;20060;-80
2023/07/29 11:00:36;;;;;;;5.95;3.85;;;;;;;30.92;52.86;100563.06;4899377;29;20048;-78
2023/07/29 11:03:09;;;;;;;8.07;4.82;;;;;;;31.06;52.75;100564.91;4901462;29;20048;-79
2023/07/29 11:05:44;;;;;;;6.25;3.78;;;;;;;31.18;52.70;100572.03;4903481;29;20064;-78
2023/07/29 11:08:29;;;;;;;5.00;3.63;;;;;;;31.22;52.10;100572.78;4912672;29;20056;-79
2023/07/29 11:11:05;;;;;;;4.82;3.40;;;;;;;31.32;52.55;100573.91;4916207;29;20044;-79
2023/07/29 11:13:37;;;;;;;5.53;3.28;;;;;;;31.21;51.74;100568.34;4919359;29;20055;-80
2023/07/29 11:16:07;;;;;;;3.65;3.28;;;;;;;31.42;51.62;100567.28;4918551;29;20048;-78
2023/07/29 11:18:39;;;;;;;4.82;3.55;;;;;;;31.53;50.93;100567.16;4903682;29;20068;-78
2023/07/29 11:21:14;;;;;;;4.70;3.85;;;;;;;31.63;50.25;100565.38;4918662;29;20059;-78
2023/07/29 11:23:44;;;;;;;4.47;3.63;;;;;;;31.63;51.17;100556.91;4930730;29;20040;-79
2023/07/29 11:26:19;;;;;;;6.28;4.63;;;;;;;31.64;51.00;100547.19;4914995;29;20052;-81
2023/07/29 11:28:53;;;;;;;6.60;4.60;;;;;;;31.47;51.99;100540.59;4885788;29;20060;-78
2023/07/29 11:31:22;;;;;;;5.40;3.92;;;;;;;31.49;52.26;100546.59;4911030;29;20113;-80
2023/07/29 11:33:50;;;;;;;6.95;4.47;;;;;;;31.54;51.65;100540.47;4908048;29;20055;-78
2023/07/29 11:36:23;;;;;;;6.18;4.00;;;;;;;31.50;52.12;100542.53;4912423;29;20060;-78